sensor_id;sensor_type;location;lat;lon;timestamp;P1;durP1;ratioP1;P2;durP2;ratioP2
27163;SDS011;14685;50.618;7.024;2022-07-06T00:01:19;2.40;;;1.30;;
27163;SDS011;14685;50.618;7.024;2022-07-06T00:03:47;6.18;;;1.40;;
27163;SDS011;14685;50.618;7.024;2022-07-06T00:06:20;2.17;;;1.20;;
27163;SDS011;14685;50.618;7.024;2022-07-06T00:08:47;5.15;;;1.33;;
27163;SDS011;14685;50.618;7.024;2022-07-06T00:11:14;4.72;;;1.73;;
27163;SDS011;14685;50.618;7.024;2022-07-06T00:13:41;5.88;;;1.40;;
27163;SDS011;14685;50.618;7.024;2022-07-06T00:16:08;6.30;;;1.50;;
27163;SDS011;14685;50.618;7.024;2022-07-06T00:18:34;3.22;;;1.42;;
27163;SDS011;14685;50.618;7.024;2022-07-06T00:21:01;6.47;;;1.40;;
27163;SDS011;14685;50.618;7.024;2022-07-06T00:23:28;3.58;;;1.40;;
27163;SDS011;14685;50.618;7.024;2022-07-06T00:25:57;4.93;;;1.63;;
27163;SDS011;14685;50.618;7.024;2022-07-06T00:28:25;5.38;;;2.08;;
27163;SDS011;14685;50.618;7.024;2022-07-06T00:30:52;3.70;;;1.60;;
27163;SDS011;14685;50.618;7.024;2022-07-06T00:33:19;4.00;;;1.45;;
27163;SDS011;14685;50.618;7.024;2022-07-06T00:35:47;5.72;;;1.30;;
27163;SDS011;14685;50.618;7.024;2022-07-06T00:38:14;4.22;;;1.60;;
27163;SDS011;14685;50.618;7.024;2022-07-06T00:40:42;5.30;;;1.10;;
27163;SDS011;14685;50.618;7.024;2022-07-06T00:43:08;3.40;;;1.40;;
27163;SDS011;14685;50.618;7.024;2022-07-06T00:45:35;3.80;;;1.35;;
27163;SDS011;14685;50.618;7.024;2022-07-06T00:48:02;4.60;;;1.45;;
27163;SDS011;14685;50.618;7.024;2022-07-06T00:50:29;4.00;;;1.23;;
27163;SDS011;14685;50.618;7.024;2022-07-06T00:52:59;3.28;;;1.38;;
27163;SDS011;14685;50.618;7.024;2022-07-06T00:55:28;3.33;;;1.60;;
27163;SDS011;14685;50.618;7.024;2022-07-06T00:57:56;3.03;;;1.38;;
27163;SDS011;14685;50.618;7.024;2022-07-06T01:00:24;4.93;;;1.33;;
27163;SDS011;14685;50.618;7.024;2022-07-06T01:02:53;2.85;;;1.40;;
27163;SDS011;14685;50.618;7.024;2022-07-06T01:05:20;4.60;;;1.73;;
27163;SDS011;14685;50.618;7.024;2022-07-06T01:07:49;6.10;;;1.23;;
27163;SDS011;14685;50.618;7.024;2022-07-06T01:10:18;3.78;;;1.52;;
27163;SDS011;14685;50.618;7.024;2022-07-06T01:12:47;5.72;;;1.55;;
27163;SDS011;14685;50.618;7.024;2022-07-06T01:15:15;6.43;;;1.75;;
27163;SDS011;14685;50.618;7.024;2022-07-06T01:17:47;2.45;;;1.67;;
27163;SDS011;14685;50.618;7.024;2022-07-06T01:20:15;4.57;;;1.48;;
27163;SDS011;14685;50.618;7.024;2022-07-06T01:22:47;5.95;;;1.83;;
27163;SDS011;14685;50.618;7.024;2022-07-06T01:25:15;5.20;;;1.67;;
27163;SDS011;14685;50.618;7.024;2022-07-06T01:27:43;4.97;;;1.63;;
27163;SDS011;14685;50.618;7.024;2022-07-06T01:30:11;3.80;;;1.40;;
27163;SDS011;14685;50.618;7.024;2022-07-06T01:32:39;2.90;;;1.50;;
27163;SDS011;14685;50.618;7.024;2022-07-06T01:35:07;2.78;;;1.60;;
27163;SDS011;14685;50.618;7.024;2022-07-06T01:37:36;6.82;;;1.42;;
27163;SDS011;14685;50.618;7.024;2022-07-06T01:40:04;3.35;;;1.83;;
27163;SDS011;14685;50.618;7.024;2022-07-06T01:42:32;7.43;;;1.80;;
27163;SDS011;14685;50.618;7.024;2022-07-06T01:45:00;4.22;;;1.45;;
27163;SDS011;14685;50.618;7.024;2022-07-06T01:47:28;3.58;;;1.48;;
27163;SDS011;14685;50.618;7.024;2022-07-06T01:49:59;3.33;;;1.70;;
27163;SDS011;14685;50.618;7.024;2022-07-06T01:52:26;4.90;;;1.90;;
27163;SDS011;14685;50.618;7.024;2022-07-06T01:54:54;4.60;;;1.88;;
27163;SDS011;14685;50.618;7.024;2022-07-06T01:57:22;6.10;;;2.13;;
27163;SDS011;14685;50.618;7.024;2022-07-06T01:59:49;3.17;;;1.63;;
27163;SDS011;14685;50.618;7.024;2022-07-06T02:02:16;4.25;;;2.10;;
27163;SDS011;14685;50.618;7.024;2022-07-06T02:04:44;5.00;;;2.15;;
27163;SDS011;14685;50.618;7.024;2022-07-06T02:07:11;3.78;;;1.88;;
27163;SDS011;14685;50.618;7.024;2022-07-06T02:09:37;4.28;;;1.73;;
27163;SDS011;14685;50.618;7.024;2022-07-06T02:12:04;3.92;;;1.98;;
27163;SDS011;14685;50.618;7.024;2022-07-06T02:14:32;4.55;;;1.77;;
27163;SDS011;14685;50.618;7.024;2022-07-06T02:16:59;3.25;;;1.80;;
27163;SDS011;14685;50.618;7.024;2022-07-06T02:19:26;4.10;;;2.05;;
27163;SDS011;14685;50.618;7.024;2022-07-06T02:21:56;2.65;;;1.80;;
27163;SDS011;14685;50.618;7.024;2022-07-06T02:24:22;5.05;;;2.20;;
27163;SDS011;14685;50.618;7.024;2022-07-06T02:26:49;5.75;;;2.30;;
27163;SDS011;14685;50.618;7.024;2022-07-06T02:29:16;6.13;;;1.80;;
27163;SDS011;14685;50.618;7.024;2022-07-06T02:31:43;3.50;;;1.75;;
27163;SDS011;14685;50.618;7.024;2022-07-06T02:34:10;3.83;;;2.28;;
27163;SDS011;14685;50.618;7.024;2022-07-06T02:36:37;5.57;;;2.08;;
27163;SDS011;14685;50.618;7.024;2022-07-06T02:39:04;3.63;;;2.00;;
27163;SDS011;14685;50.618;7.024;2022-07-06T02:41:30;4.10;;;1.95;;
27163;SDS011;14685;50.618;7.024;2022-07-06T02:43:57;4.00;;;1.85;;
27163;SDS011;14685;50.618;7.024;2022-07-06T02:46:24;5.40;;;2.05;;
27163;SDS011;14685;50.618;7.024;2022-07-06T02:48:51;2.95;;;2.40;;
27163;SDS011;14685;50.618;7.024;2022-07-06T02:51:18;4.88;;;2.25;;
27163;SDS011;14685;50.618;7.024;2022-07-06T02:53:45;4.30;;;2.45;;
27163;SDS011;14685;50.618;7.024;2022-07-06T02:56:11;6.65;;;2.40;;
27163;SDS011;14685;50.618;7.024;2022-07-06T02:58:38;5.68;;;2.45;;
27163;SDS011;14685;50.618;7.024;2022-07-06T03:01:05;4.57;;;2.67;;
27163;SDS011;14685;50.618;7.024;2022-07-06T03:03:32;4.18;;;2.20;;
27163;SDS011;14685;50.618;7.024;2022-07-06T03:05:59;5.82;;;2.20;;
27163;SDS011;14685;50.618;7.024;2022-07-06T03:08:26;2.72;;;2.00;;
27163;SDS011;14685;50.618;7.024;2022-07-06T03:10:53;4.72;;;2.30;;
27163;SDS011;14685;50.618;7.024;2022-07-06T03:13:20;4.57;;;2.15;;
27163;SDS011;14685;50.618;7.024;2022-07-06T03:15:48;5.55;;;2.40;;
27163;SDS011;14685;50.618;7.024;2022-07-06T03:18:15;6.63;;;2.30;;
27163;SDS011;14685;50.618;7.024;2022-07-06T03:20:41;5.30;;;1.90;;
27163;SDS011;14685;50.618;7.024;2022-07-06T03:23:08;7.00;;;2.20;;
27163;SDS011;14685;50.618;7.024;2022-07-06T03:25:35;3.17;;;2.20;;
27163;SDS011;14685;50.618;7.024;2022-07-06T03:28:02;2.80;;;2.45;;
27163;SDS011;14685;50.618;7.024;2022-07-06T03:30:29;3.95;;;2.10;;
27163;SDS011;14685;50.618;7.024;2022-07-06T03:32:56;4.65;;;1.90;;
27163;SDS011;14685;50.618;7.024;2022-07-06T03:35:23;3.15;;;2.38;;
27163;SDS011;14685;50.618;7.024;2022-07-06T03:37:50;4.35;;;2.28;;
27163;SDS011;14685;50.618;7.024;2022-07-06T03:40:17;4.85;;;1.95;;
27163;SDS011;14685;50.618;7.024;2022-07-06T03:42:44;3.17;;;2.08;;
27163;SDS011;14685;50.618;7.024;2022-07-06T03:45:11;4.18;;;2.17;;
27163;SDS011;14685;50.618;7.024;2022-07-06T03:47:38;5.57;;;2.47;;
27163;SDS011;14685;50.618;7.024;2022-07-06T03:50:04;5.30;;;2.15;;
27163;SDS011;14685;50.618;7.024;2022-07-06T03:52:32;3.78;;;2.17;;
27163;SDS011;14685;50.618;7.024;2022-07-06T03:55:00;4.43;;;2.42;;
27163;SDS011;14685;50.618;7.024;2022-07-06T03:57:27;7.07;;;2.15;;
27163;SDS011;14685;50.618;7.024;2022-07-06T03:59:54;8.23;;;2.33;;
27163;SDS011;14685;50.618;7.024;2022-07-06T04:02:21;5.13;;;1.98;;
27163;SDS011;14685;50.618;7.024;2022-07-06T04:04:48;6.03;;;2.10;;
27163;SDS011;14685;50.618;7.024;2022-07-06T04:07:14;3.13;;;1.85;;
27163;SDS011;14685;50.618;7.024;2022-07-06T04:09:41;4.43;;;2.17;;
27163;SDS011;14685;50.618;7.024;2022-07-06T04:12:08;4.20;;;2.35;;
27163;SDS011;14685;50.618;7.024;2022-07-06T04:14:35;4.30;;;2.42;;
27163;SDS011;14685;50.618;7.024;2022-07-06T04:17:02;4.28;;;2.50;;
27163;SDS011;14685;50.618;7.024;2022-07-06T04:19:48;4.32;;;2.17;;
27163;SDS011;14685;50.618;7.024;2022-07-06T04:22:15;4.38;;;2.60;;
27163;SDS011;14685;50.618;7.024;2022-07-06T04:24:42;6.35;;;2.97;;
27163;SDS011;14685;50.618;7.024;2022-07-06T04:27:09;4.68;;;2.60;;
27163;SDS011;14685;50.618;7.024;2022-07-06T04:29:36;6.20;;;2.63;;
27163;SDS011;14685;50.618;7.024;2022-07-06T04:32:03;5.40;;;2.65;;
27163;SDS011;14685;50.618;7.024;2022-07-06T04:34:30;3.80;;;2.40;;
27163;SDS011;14685;50.618;7.024;2022-07-06T04:36:57;5.18;;;2.85;;
27163;SDS011;14685;50.618;7.024;2022-07-06T04:39:24;5.28;;;2.90;;
27163;SDS011;14685;50.618;7.024;2022-07-06T04:41:51;7.35;;;2.70;;
27163;SDS011;14685;50.618;7.024;2022-07-06T04:44:17;5.47;;;3.03;;
27163;SDS011;14685;50.618;7.024;2022-07-06T04:46:44;4.93;;;2.95;;
27163;SDS011;14685;50.618;7.024;2022-07-06T04:49:11;5.38;;;2.97;;
27163;SDS011;14685;50.618;7.024;2022-07-06T04:51:38;5.28;;;2.60;;
27163;SDS011;14685;50.618;7.024;2022-07-06T04:54:05;9.18;;;3.20;;
27163;SDS011;14685;50.618;7.024;2022-07-06T04:56:32;8.38;;;3.08;;
27163;SDS011;14685;50.618;7.024;2022-07-06T04:58:58;4.50;;;2.60;;
27163;SDS011;14685;50.618;7.024;2022-07-06T05:01:25;8.75;;;3.05;;
27163;SDS011;14685;50.618;7.024;2022-07-06T05:03:52;4.97;;;3.20;;
27163;SDS011;14685;50.618;7.024;2022-07-06T05:06:19;6.00;;;3.10;;
27163;SDS011;14685;50.618;7.024;2022-07-06T05:08:46;10.15;;;3.22;;
27163;SDS011;14685;50.618;7.024;2022-07-06T05:11:13;5.30;;;3.22;;
27163;SDS011;14685;50.618;7.024;2022-07-06T05:13:40;5.68;;;3.05;;
27163;SDS011;14685;50.618;7.024;2022-07-06T05:16:07;7.85;;;3.65;;
27163;SDS011;14685;50.618;7.024;2022-07-06T05:18:34;5.97;;;3.45;;
27163;SDS011;14685;50.618;7.024;2022-07-06T05:21:01;6.40;;;2.92;;
27163;SDS011;14685;50.618;7.024;2022-07-06T05:23:28;7.43;;;3.38;;
27163;SDS011;14685;50.618;7.024;2022-07-06T05:25:55;5.95;;;3.38;;
27163;SDS011;14685;50.618;7.024;2022-07-06T05:28:21;8.50;;;3.83;;
27163;SDS011;14685;50.618;7.024;2022-07-06T05:30:49;6.13;;;3.55;;
27163;SDS011;14685;50.618;7.024;2022-07-06T05:33:16;10.02;;;3.72;;
27163;SDS011;14685;50.618;7.024;2022-07-06T05:35:42;6.07;;;3.22;;
27163;SDS011;14685;50.618;7.024;2022-07-06T05:38:18;4.50;;;2.75;;
27163;SDS011;14685;50.618;7.024;2022-07-06T05:40:45;5.95;;;3.35;;
27163;SDS011;14685;50.618;7.024;2022-07-06T05:43:12;6.13;;;3.20;;
27163;SDS011;14685;50.618;7.024;2022-07-06T05:45:39;8.75;;;3.20;;
27163;SDS011;14685;50.618;7.024;2022-07-06T05:48:06;6.75;;;3.35;;
27163;SDS011;14685;50.618;7.024;2022-07-06T05:50:52;7.47;;;3.30;;
27163;SDS011;14685;50.618;7.024;2022-07-06T05:53:18;5.97;;;2.95;;
27163;SDS011;14685;50.618;7.024;2022-07-06T05:55:46;4.78;;;3.45;;
27163;SDS011;14685;50.618;7.024;2022-07-06T05:58:13;6.68;;;3.55;;
27163;SDS011;14685;50.618;7.024;2022-07-06T06:00:40;6.15;;;3.40;;
27163;SDS011;14685;50.618;7.024;2022-07-06T06:03:07;5.78;;;3.13;;
27163;SDS011;14685;50.618;7.024;2022-07-06T06:05:34;6.38;;;3.03;;
27163;SDS011;14685;50.618;7.024;2022-07-06T06:08:01;6.90;;;2.95;;
27163;SDS011;14685;50.618;7.024;2022-07-06T06:10:28;6.05;;;3.55;;
27163;SDS011;14685;50.618;7.024;2022-07-06T06:12:55;9.05;;;3.60;;
27163;SDS011;14685;50.618;7.024;2022-07-06T06:15:22;7.22;;;3.00;;
27163;SDS011;14685;50.618;7.024;2022-07-06T06:17:49;4.45;;;2.88;;
27163;SDS011;14685;50.618;7.024;2022-07-06T06:20:16;9.07;;;3.38;;
27163;SDS011;14685;50.618;7.024;2022-07-06T06:22:46;5.80;;;2.50;;
27163;SDS011;14685;50.618;7.024;2022-07-06T06:25:15;5.70;;;2.88;;
27163;SDS011;14685;50.618;7.024;2022-07-06T06:27:42;7.40;;;3.47;;
27163;SDS011;14685;50.618;7.024;2022-07-06T06:30:10;7.55;;;3.05;;
27163;SDS011;14685;50.618;7.024;2022-07-06T06:32:38;7.63;;;2.92;;
27163;SDS011;14685;50.618;7.024;2022-07-06T06:35:05;6.30;;;2.67;;
27163;SDS011;14685;50.618;7.024;2022-07-06T06:37:32;4.20;;;2.30;;
27163;SDS011;14685;50.618;7.024;2022-07-06T06:40:00;3.58;;;1.88;;
27163;SDS011;14685;50.618;7.024;2022-07-06T06:42:27;3.92;;;2.13;;
27163;SDS011;14685;50.618;7.024;2022-07-06T06:47:29;5.78;;;2.35;;
27163;SDS011;14685;50.618;7.024;2022-07-06T06:49:56;7.40;;;2.80;;
27163;SDS011;14685;50.618;7.024;2022-07-06T06:52:23;6.53;;;1.92;;
27163;SDS011;14685;50.618;7.024;2022-07-06T06:55:06;4.53;;;1.83;;
27163;SDS011;14685;50.618;7.024;2022-07-06T06:57:34;6.60;;;2.35;;
27163;SDS011;14685;50.618;7.024;2022-07-06T07:00:01;5.90;;;2.72;;
27163;SDS011;14685;50.618;7.024;2022-07-06T07:02:29;4.97;;;2.00;;
27163;SDS011;14685;50.618;7.024;2022-07-06T07:04:56;5.30;;;2.10;;
27163;SDS011;14685;50.618;7.024;2022-07-06T07:07:23;10.50;;;2.33;;
27163;SDS011;14685;50.618;7.024;2022-07-06T07:09:50;7.28;;;2.00;;
27163;SDS011;14685;50.618;7.024;2022-07-06T07:12:17;7.60;;;2.10;;
27163;SDS011;14685;50.618;7.024;2022-07-06T07:14:44;5.20;;;1.75;;
27163;SDS011;14685;50.618;7.024;2022-07-06T07:17:10;8.60;;;2.10;;
27163;SDS011;14685;50.618;7.024;2022-07-06T07:19:37;6.30;;;2.05;;
27163;SDS011;14685;50.618;7.024;2022-07-06T07:22:05;2.70;;;1.50;;
27163;SDS011;14685;50.618;7.024;2022-07-06T07:24:32;4.68;;;1.63;;
27163;SDS011;14685;50.618;7.024;2022-07-06T07:26:58;4.25;;;1.38;;
27163;SDS011;14685;50.618;7.024;2022-07-06T07:29:25;6.30;;;1.90;;
27163;SDS011;14685;50.618;7.024;2022-07-06T07:31:52;4.30;;;1.75;;
27163;SDS011;14685;50.618;7.024;2022-07-06T07:34:19;8.00;;;1.60;;
27163;SDS011;14685;50.618;7.024;2022-07-06T07:36:46;10.25;;;2.03;;
27163;SDS011;14685;50.618;7.024;2022-07-06T07:39:13;6.65;;;1.58;;
27163;SDS011;14685;50.618;7.024;2022-07-06T07:41:40;5.95;;;1.52;;
27163;SDS011;14685;50.618;7.024;2022-07-06T07:44:07;3.67;;;1.35;;
27163;SDS011;14685;50.618;7.024;2022-07-06T07:46:37;5.35;;;1.38;;
27163;SDS011;14685;50.618;7.024;2022-07-06T07:49:03;3.38;;;1.40;;
27163;SDS011;14685;50.618;7.024;2022-07-06T07:51:30;4.57;;;1.60;;
27163;SDS011;14685;50.618;7.024;2022-07-06T07:53:57;4.38;;;1.23;;
27163;SDS011;14685;50.618;7.024;2022-07-06T07:56:24;1.85;;;1.00;;
27163;SDS011;14685;50.618;7.024;2022-07-06T07:58:50;3.00;;;1.27;;
27163;SDS011;14685;50.618;7.024;2022-07-06T08:01:17;5.15;;;1.60;;
27163;SDS011;14685;50.618;7.024;2022-07-06T08:03:44;5.82;;;1.70;;
27163;SDS011;14685;50.618;7.024;2022-07-06T08:06:11;5.63;;;2.05;;
27163;SDS011;14685;50.618;7.024;2022-07-06T08:08:38;4.20;;;1.33;;
27163;SDS011;14685;50.618;7.024;2022-07-06T08:11:06;4.78;;;1.63;;
27163;SDS011;14685;50.618;7.024;2022-07-06T08:13:43;2.45;;;1.45;;
27163;SDS011;14685;50.618;7.024;2022-07-06T08:16:10;6.68;;;1.30;;
27163;SDS011;14685;50.618;7.024;2022-07-06T08:18:38;3.88;;;1.50;;
27163;SDS011;14685;50.618;7.024;2022-07-06T08:21:05;5.97;;;1.77;;
27163;SDS011;14685;50.618;7.024;2022-07-06T08:23:52;7.78;;;1.20;;
27163;SDS011;14685;50.618;7.024;2022-07-06T08:26:21;7.20;;;1.55;;
27163;SDS011;14685;50.618;7.024;2022-07-06T08:28:48;6.05;;;1.50;;
27163;SDS011;14685;50.618;7.024;2022-07-06T08:31:15;2.67;;;1.20;;
27163;SDS011;14685;50.618;7.024;2022-07-06T08:34:02;7.05;;;1.58;;
27163;SDS011;14685;50.618;7.024;2022-07-06T08:36:29;4.88;;;1.30;;
27163;SDS011;14685;50.618;7.024;2022-07-06T08:38:57;3.78;;;1.17;;
27163;SDS011;14685;50.618;7.024;2022-07-06T08:41:25;5.15;;;1.30;;
27163;SDS011;14685;50.618;7.024;2022-07-06T08:43:54;4.53;;;1.20;;
27163;SDS011;14685;50.618;7.024;2022-07-06T08:46:22;5.47;;;1.25;;
27163;SDS011;14685;50.618;7.024;2022-07-06T08:48:49;7.40;;;1.50;;
27163;SDS011;14685;50.618;7.024;2022-07-06T08:51:16;2.50;;;1.00;;
27163;SDS011;14685;50.618;7.024;2022-07-06T08:53:44;8.07;;;1.05;;
27163;SDS011;14685;50.618;7.024;2022-07-06T08:56:12;4.18;;;1.33;;
27163;SDS011;14685;50.618;7.024;2022-07-06T08:58:40;5.03;;;1.30;;
27163;SDS011;14685;50.618;7.024;2022-07-06T09:01:11;5.18;;;1.40;;
27163;SDS011;14685;50.618;7.024;2022-07-06T09:03:42;5.55;;;1.30;;
27163;SDS011;14685;50.618;7.024;2022-07-06T09:06:11;6.13;;;1.27;;
27163;SDS011;14685;50.618;7.024;2022-07-06T09:08:46;6.15;;;1.27;;
27163;SDS011;14685;50.618;7.024;2022-07-06T09:11:14;3.58;;;1.17;;
27163;SDS011;14685;50.618;7.024;2022-07-06T09:13:42;2.60;;;0.85;;
27163;SDS011;14685;50.618;7.024;2022-07-06T09:16:09;7.07;;;1.20;;
27163;SDS011;14685;50.618;7.024;2022-07-06T09:18:57;3.80;;;1.30;;
27163;SDS011;14685;50.618;7.024;2022-07-06T09:24:00;4.00;;;1.10;;
27163;SDS011;14685;50.618;7.024;2022-07-06T09:26:30;6.25;;;1.50;;
27163;SDS011;14685;50.618;7.024;2022-07-06T09:28:57;4.30;;;1.30;;
27163;SDS011;14685;50.618;7.024;2022-07-06T09:31:27;5.68;;;1.20;;
27163;SDS011;14685;50.618;7.024;2022-07-06T09:33:55;3.33;;;1.00;;
27163;SDS011;14685;50.618;7.024;2022-07-06T09:36:45;5.75;;;0.88;;
27163;SDS011;14685;50.618;7.024;2022-07-06T09:41:54;8.52;;;1.40;;
27163;SDS011;14685;50.618;7.024;2022-07-06T09:46:57;5.03;;;1.02;;
27163;SDS011;14685;50.618;7.024;2022-07-06T09:49:25;4.32;;;0.90;;
27163;SDS011;14685;50.618;7.024;2022-07-06T09:51:56;2.67;;;0.90;;
27163;SDS011;14685;50.618;7.024;2022-07-06T09:54:24;2.05;;;0.98;;
27163;SDS011;14685;50.618;7.024;2022-07-06T09:56:51;2.85;;;1.20;;
27163;SDS011;14685;50.618;7.024;2022-07-06T09:59:20;4.55;;;1.25;;
27163;SDS011;14685;50.618;7.024;2022-07-06T10:01:52;4.82;;;0.93;;
27163;SDS011;14685;50.618;7.024;2022-07-06T10:04:21;4.32;;;1.02;;
27163;SDS011;14685;50.618;7.024;2022-07-06T10:06:49;3.17;;;1.05;;
27163;SDS011;14685;50.618;7.024;2022-07-06T10:09:18;2.78;;;1.13;;
27163;SDS011;14685;50.618;7.024;2022-07-06T10:11:49;5.13;;;1.38;;
27163;SDS011;14685;50.618;7.024;2022-07-06T10:14:24;3.33;;;1.10;;
27163;SDS011;14685;50.618;7.024;2022-07-06T10:16:54;3.65;;;1.30;;
27163;SDS011;14685;50.618;7.024;2022-07-06T10:19:30;6.18;;;1.20;;
27163;SDS011;14685;50.618;7.024;2022-07-06T10:21:58;3.47;;;1.20;;
27163;SDS011;14685;50.618;7.024;2022-07-06T10:24:27;6.68;;;1.20;;
27163;SDS011;14685;50.618;7.024;2022-07-06T10:26:55;3.75;;;0.95;;
27163;SDS011;14685;50.618;7.024;2022-07-06T10:29:23;1.00;;;0.77;;
27163;SDS011;14685;50.618;7.024;2022-07-06T10:31:50;2.83;;;1.23;;
27163;SDS011;14685;50.618;7.024;2022-07-06T10:34:18;4.40;;;0.73;;
27163;SDS011;14685;50.618;7.024;2022-07-06T10:36:50;4.35;;;1.10;;
27163;SDS011;14685;50.618;7.024;2022-07-06T10:39:39;3.53;;;0.98;;
27163;SDS011;14685;50.618;7.024;2022-07-06T10:45:10;1.95;;;0.90;;
27163;SDS011;14685;50.618;7.024;2022-07-06T10:47:42;6.20;;;1.10;;
27163;SDS011;14685;50.618;7.024;2022-07-06T10:50:10;3.70;;;1.20;;
27163;SDS011;14685;50.618;7.024;2022-07-06T10:52:48;5.13;;;1.05;;
27163;SDS011;14685;50.618;7.024;2022-07-06T10:55:33;2.55;;;0.90;;
27163;SDS011;14685;50.618;7.024;2022-07-06T10:58:03;3.42;;;1.10;;
27163;SDS011;14685;50.618;7.024;2022-07-06T11:00:49;4.22;;;1.30;;
27163;SDS011;14685;50.618;7.024;2022-07-06T11:03:34;2.53;;;1.17;;
27163;SDS011;14685;50.618;7.024;2022-07-06T11:08:52;5.25;;;1.20;;
27163;SDS011;14685;50.618;7.024;2022-07-06T11:11:21;4.35;;;1.38;;
27163;SDS011;14685;50.618;7.024;2022-07-06T11:14:07;4.68;;;1.10;;
27163;SDS011;14685;50.618;7.024;2022-07-06T11:16:40;3.50;;;1.02;;
27163;SDS011;14685;50.618;7.024;2022-07-06T11:19:30;4.65;;;1.35;;
27163;SDS011;14685;50.618;7.024;2022-07-06T11:21:59;2.50;;;1.20;;
27163;SDS011;14685;50.618;7.024;2022-07-06T11:24:33;2.70;;;1.25;;
27163;SDS011;14685;50.618;7.024;2022-07-06T11:27:03;4.00;;;1.08;;
27163;SDS011;14685;50.618;7.024;2022-07-06T11:29:31;3.55;;;0.88;;
27163;SDS011;14685;50.618;7.024;2022-07-06T11:31:58;4.03;;;1.13;;
27163;SDS011;14685;50.618;7.024;2022-07-06T11:34:33;5.32;;;1.15;;
27163;SDS011;14685;50.618;7.024;2022-07-06T11:37:06;4.75;;;1.10;;
27163;SDS011;14685;50.618;7.024;2022-07-06T11:39:35;3.63;;;1.00;;
27163;SDS011;14685;50.618;7.024;2022-07-06T11:42:03;2.95;;;1.10;;
27163;SDS011;14685;50.618;7.024;2022-07-06T11:44:30;3.78;;;1.20;;
27163;SDS011;14685;50.618;7.024;2022-07-06T11:46:58;6.22;;;1.27;;
27163;SDS011;14685;50.618;7.024;2022-07-06T11:49:30;3.40;;;1.30;;
27163;SDS011;14685;50.618;7.024;2022-07-06T11:51:59;2.08;;;1.00;;
27163;SDS011;14685;50.618;7.024;2022-07-06T11:54:26;3.70;;;0.95;;
27163;SDS011;14685;50.618;7.024;2022-07-06T11:56:54;3.53;;;1.00;;
27163;SDS011;14685;50.618;7.024;2022-07-06T12:02:03;4.15;;;1.40;;
27163;SDS011;14685;50.618;7.024;2022-07-06T12:04:35;3.20;;;1.10;;
27163;SDS011;14685;50.618;7.024;2022-07-06T12:07:08;2.60;;;1.10;;
27163;SDS011;14685;50.618;7.024;2022-07-06T12:09:40;5.20;;;0.95;;
27163;SDS011;14685;50.618;7.024;2022-07-06T12:12:09;2.67;;;1.00;;
27163;SDS011;14685;50.618;7.024;2022-07-06T12:14:37;3.40;;;1.10;;
27163;SDS011;14685;50.618;7.024;2022-07-06T12:17:09;2.35;;;1.00;;
27163;SDS011;14685;50.618;7.024;2022-07-06T12:19:38;1.35;;;1.10;;
27163;SDS011;14685;50.618;7.024;2022-07-06T12:22:07;2.28;;;1.15;;
27163;SDS011;14685;50.618;7.024;2022-07-06T12:24:36;3.65;;;1.10;;
27163;SDS011;14685;50.618;7.024;2022-07-06T12:27:11;3.33;;;1.00;;
27163;SDS011;14685;50.618;7.024;2022-07-06T12:29:40;3.50;;;0.95;;
27163;SDS011;14685;50.618;7.024;2022-07-06T12:32:13;5.00;;;1.20;;
27163;SDS011;14685;50.618;7.024;2022-07-06T12:34:41;4.15;;;1.00;;
27163;SDS011;14685;50.618;7.024;2022-07-06T12:37:09;5.68;;;0.90;;
27163;SDS011;14685;50.618;7.024;2022-07-06T12:39:46;2.90;;;1.15;;
27163;SDS011;14685;50.618;7.024;2022-07-06T12:42:14;2.60;;;1.30;;
27163;SDS011;14685;50.618;7.024;2022-07-06T12:44:49;3.28;;;0.93;;
27163;SDS011;14685;50.618;7.024;2022-07-06T12:47:18;2.90;;;1.10;;
27163;SDS011;14685;50.618;7.024;2022-07-06T12:49:47;2.65;;;0.90;;
27163;SDS011;14685;50.618;7.024;2022-07-06T12:52:15;2.22;;;1.05;;
27163;SDS011;14685;50.618;7.024;2022-07-06T12:54:44;2.45;;;0.73;;
27163;SDS011;14685;50.618;7.024;2022-07-06T12:57:16;4.53;;;1.00;;
27163;SDS011;14685;50.618;7.024;2022-07-06T12:59:47;1.80;;;0.90;;
27163;SDS011;14685;50.618;7.024;2022-07-06T13:02:24;2.65;;;1.25;;
27163;SDS011;14685;50.618;7.024;2022-07-06T13:05:12;2.70;;;1.23;;
27163;SDS011;14685;50.618;7.024;2022-07-06T13:07:45;5.10;;;1.15;;
27163;SDS011;14685;50.618;7.024;2022-07-06T13:10:13;5.78;;;1.30;;
27163;SDS011;14685;50.618;7.024;2022-07-06T13:12:41;3.20;;;1.17;;
27163;SDS011;14685;50.618;7.024;2022-07-06T13:15:08;4.18;;;1.00;;
27163;SDS011;14685;50.618;7.024;2022-07-06T13:17:36;4.50;;;1.00;;
27163;SDS011;14685;50.618;7.024;2022-07-06T13:20:10;4.13;;;1.00;;
27163;SDS011;14685;50.618;7.024;2022-07-06T13:22:39;6.32;;;1.20;;
27163;SDS011;14685;50.618;7.024;2022-07-06T13:25:06;1.80;;;0.70;;
27163;SDS011;14685;50.618;7.024;2022-07-06T13:27:34;1.98;;;0.90;;
27163;SDS011;14685;50.618;7.024;2022-07-06T13:30:01;3.05;;;1.00;;
27163;SDS011;14685;50.618;7.024;2022-07-06T13:32:29;2.85;;;1.15;;
27163;SDS011;14685;50.618;7.024;2022-07-06T13:34:56;3.80;;;0.90;;
27163;SDS011;14685;50.618;7.024;2022-07-06T13:37:22;3.25;;;1.10;;
27163;SDS011;14685;50.618;7.024;2022-07-06T13:39:49;3.97;;;0.90;;
27163;SDS011;14685;50.618;7.024;2022-07-06T13:42:16;3.15;;;0.90;;
27163;SDS011;14685;50.618;7.024;2022-07-06T13:44:43;3.63;;;1.02;;
27163;SDS011;14685;50.618;7.024;2022-07-06T13:47:10;3.33;;;1.00;;
27163;SDS011;14685;50.618;7.024;2022-07-06T13:49:37;10.63;;;0.90;;
27163;SDS011;14685;50.618;7.024;2022-07-06T13:52:04;1.75;;;0.98;;
27163;SDS011;14685;50.618;7.024;2022-07-06T13:54:31;2.92;;;1.00;;
27163;SDS011;14685;50.618;7.024;2022-07-06T13:57:01;2.30;;;1.02;;
27163;SDS011;14685;50.618;7.024;2022-07-06T13:59:29;3.67;;;1.15;;
27163;SDS011;14685;50.618;7.024;2022-07-06T14:01:56;2.22;;;0.80;;
27163;SDS011;14685;50.618;7.024;2022-07-06T14:04:24;3.47;;;0.82;;
27163;SDS011;14685;50.618;7.024;2022-07-06T14:06:51;3.70;;;1.00;;
27163;SDS011;14685;50.618;7.024;2022-07-06T14:09:18;5.35;;;0.85;;
27163;SDS011;14685;50.618;7.024;2022-07-06T14:11:45;4.30;;;0.88;;
27163;SDS011;14685;50.618;7.024;2022-07-06T14:14:12;2.33;;;0.77;;
27163;SDS011;14685;50.618;7.024;2022-07-06T14:16:39;3.35;;;0.77;;
27163;SDS011;14685;50.618;7.024;2022-07-06T14:19:07;3.05;;;0.80;;
27163;SDS011;14685;50.618;7.024;2022-07-06T14:21:34;2.35;;;0.73;;
27163;SDS011;14685;50.618;7.024;2022-07-06T14:24:01;7.47;;;0.90;;
27163;SDS011;14685;50.618;7.024;2022-07-06T14:26:28;1.90;;;0.70;;
27163;SDS011;14685;50.618;7.024;2022-07-06T14:28:55;2.63;;;0.63;;
27163;SDS011;14685;50.618;7.024;2022-07-06T14:31:22;2.80;;;0.80;;
27163;SDS011;14685;50.618;7.024;2022-07-06T14:33:49;1.95;;;0.88;;
27163;SDS011;14685;50.618;7.024;2022-07-06T14:36:17;1.38;;;0.70;;
27163;SDS011;14685;50.618;7.024;2022-07-06T14:38:45;3.35;;;0.90;;
27163;SDS011;14685;50.618;7.024;2022-07-06T14:41:12;4.57;;;0.90;;
27163;SDS011;14685;50.618;7.024;2022-07-06T14:43:39;4.85;;;0.98;;
27163;SDS011;14685;50.618;7.024;2022-07-06T14:46:06;3.28;;;0.90;;
27163;SDS011;14685;50.618;7.024;2022-07-06T14:48:33;2.83;;;1.00;;
27163;SDS011;14685;50.618;7.024;2022-07-06T14:51:00;2.60;;;0.90;;
27163;SDS011;14685;50.618;7.024;2022-07-06T14:53:27;4.78;;;1.48;;
27163;SDS011;14685;50.618;7.024;2022-07-06T14:55:55;5.68;;;2.63;;
27163;SDS011;14685;50.618;7.024;2022-07-06T14:58:22;1.27;;;0.93;;
27163;SDS011;14685;50.618;7.024;2022-07-06T15:00:49;4.10;;;1.38;;
27163;SDS011;14685;50.618;7.024;2022-07-06T15:03:24;3.10;;;1.35;;
27163;SDS011;14685;50.618;7.024;2022-07-06T15:05:54;3.67;;;1.27;;
27163;SDS011;14685;50.618;7.024;2022-07-06T15:08:21;3.33;;;0.90;;
27163;SDS011;14685;50.618;7.024;2022-07-06T15:10:48;2.20;;;1.00;;
27163;SDS011;14685;50.618;7.024;2022-07-06T15:13:16;2.08;;;0.65;;
27163;SDS011;14685;50.618;7.024;2022-07-06T15:15:43;3.58;;;1.00;;